sensor_id;sensor_type;location;lat;lon;timestamp;P1;durP1;ratioP1;P2;durP2;ratioP2
31652;SDS011;18261;53.648;9.910;2024-01-06T00:00:57;14.55;;;8.40;;
31652;SDS011;18261;53.648;9.910;2024-01-06T00:03:22;12.93;;;8.27;;
31652;SDS011;18261;53.648;9.910;2024-01-06T00:05:48;11.40;;;7.80;;
31652;SDS011;18261;53.648;9.910;2024-01-06T00:08:13;14.43;;;8.57;;
31652;SDS011;18261;53.648;9.910;2024-01-06T00:10:39;14.80;;;8.27;;
31652;SDS011;18261;53.648;9.910;2024-01-06T00:13:04;13.70;;;8.68;;
31652;SDS011;18261;53.648;9.910;2024-01-06T00:15:30;14.27;;;8.07;;
31652;SDS011;18261;53.648;9.910;2024-01-06T00:17:56;15.00;;;8.38;;
31652;SDS011;18261;53.648;9.910;2024-01-06T00:20:21;14.02;;;8.77;;
31652;SDS011;18261;53.648;9.910;2024-01-06T00:22:47;15.65;;;8.88;;
31652;SDS011;18261;53.648;9.910;2024-01-06T00:25:12;14.73;;;8.75;;
31652;SDS011;18261;53.648;9.910;2024-01-06T00:27:38;16.67;;;9.35;;
31652;SDS011;18261;53.648;9.910;2024-01-06T00:30:04;15.13;;;9.15;;
31652;SDS011;18261;53.648;9.910;2024-01-06T00:32:30;15.75;;;8.90;;
31652;SDS011;18261;53.648;9.910;2024-01-06T00:34:56;12.90;;;8.52;;
31652;SDS011;18261;53.648;9.910;2024-01-06T00:37:21;13.23;;;9.10;;
31652;SDS011;18261;53.648;9.910;2024-01-06T00:39:47;15.45;;;9.25;;
31652;SDS011;18261;53.648;9.910;2024-01-06T00:42:12;16.30;;;8.90;;
31652;SDS011;18261;53.648;9.910;2024-01-06T00:44:38;14.20;;;9.32;;
31652;SDS011;18261;53.648;9.910;2024-01-06T00:47:03;17.33;;;9.65;;
31652;SDS011;18261;53.648;9.910;2024-01-06T00:49:29;16.00;;;9.40;;
31652;SDS011;18261;53.648;9.910;2024-01-06T00:51:55;14.63;;;9.57;;
31652;SDS011;18261;53.648;9.910;2024-01-06T00:54:20;14.25;;;9.52;;
31652;SDS011;18261;53.648;9.910;2024-01-06T00:56:46;16.23;;;9.80;;
31652;SDS011;18261;53.648;9.910;2024-01-06T00:59:11;13.75;;;9.48;;
31652;SDS011;18261;53.648;9.910;2024-01-06T01:01:37;16.38;;;9.30;;
31652;SDS011;18261;53.648;9.910;2024-01-06T01:04:03;14.20;;;9.30;;
31652;SDS011;18261;53.648;9.910;2024-01-06T01:06:28;16.77;;;9.48;;
31652;SDS011;18261;53.648;9.910;2024-01-06T01:08:54;14.02;;;8.98;;
31652;SDS011;18261;53.648;9.910;2024-01-06T01:11:20;17.30;;;9.68;;
31652;SDS011;18261;53.648;9.910;2024-01-06T01:13:45;13.20;;;8.82;;
31652;SDS011;18261;53.648;9.910;2024-01-06T01:16:11;14.55;;;9.43;;
31652;SDS011;18261;53.648;9.910;2024-01-06T01:18:37;15.68;;;9.05;;
31652;SDS011;18261;53.648;9.910;2024-01-06T01:21:02;14.18;;;8.60;;
31652;SDS011;18261;53.648;9.910;2024-01-06T01:23:28;16.23;;;9.00;;
31652;SDS011;18261;53.648;9.910;2024-01-06T01:25:54;14.60;;;8.65;;
31652;SDS011;18261;53.648;9.910;2024-01-06T01:28:19;15.38;;;9.35;;
31652;SDS011;18261;53.648;9.910;2024-01-06T01:30:45;12.55;;;7.97;;
31652;SDS011;18261;53.648;9.910;2024-01-06T01:33:11;15.55;;;9.35;;
31652;SDS011;18261;53.648;9.910;2024-01-06T01:35:36;15.27;;;8.90;;
31652;SDS011;18261;53.648;9.910;2024-01-06T01:38:02;11.98;;;8.63;;
31652;SDS011;18261;53.648;9.910;2024-01-06T01:40:28;11.55;;;8.30;;
31652;SDS011;18261;53.648;9.910;2024-01-06T01:42:53;14.88;;;9.32;;
31652;SDS011;18261;53.648;9.910;2024-01-06T01:45:19;15.77;;;8.80;;
31652;SDS011;18261;53.648;9.910;2024-01-06T01:47:45;16.33;;;8.90;;
31652;SDS011;18261;53.648;9.910;2024-01-06T01:50:11;16.92;;;9.40;;
31652;SDS011;18261;53.648;9.910;2024-01-06T01:52:39;13.52;;;9.38;;
31652;SDS011;18261;53.648;9.910;2024-01-06T01:55:06;15.77;;;10.10;;
31652;SDS011;18261;53.648;9.910;2024-01-06T01:57:32;16.00;;;9.57;;
31652;SDS011;18261;53.648;9.910;2024-01-06T01:59:57;16.15;;;9.90;;
31652;SDS011;18261;53.648;9.910;2024-01-06T02:02:25;14.77;;;9.45;;
31652;SDS011;18261;53.648;9.910;2024-01-06T02:04:51;19.25;;;11.00;;
31652;SDS011;18261;53.648;9.910;2024-01-06T02:07:17;14.77;;;9.75;;
31652;SDS011;18261;53.648;9.910;2024-01-06T02:09:43;15.30;;;9.80;;
31652;SDS011;18261;53.648;9.910;2024-01-06T02:12:08;16.60;;;10.02;;
31652;SDS011;18261;53.648;9.910;2024-01-06T02:14:34;17.48;;;10.63;;
31652;SDS011;18261;53.648;9.910;2024-01-06T02:16:59;15.77;;;10.80;;
31652;SDS011;18261;53.648;9.910;2024-01-06T02:19:25;19.40;;;11.48;;
31652;SDS011;18261;53.648;9.910;2024-01-06T02:21:54;16.40;;;10.65;;
31652;SDS011;18261;53.648;9.910;2024-01-06T02:24:19;18.20;;;10.77;;
31652;SDS011;18261;53.648;9.910;2024-01-06T02:26:46;16.92;;;11.05;;
31652;SDS011;18261;53.648;9.910;2024-01-06T02:29:11;19.55;;;11.50;;
31652;SDS011;18261;53.648;9.910;2024-01-06T02:31:37;19.33;;;12.80;;
31652;SDS011;18261;53.648;9.910;2024-01-06T02:34:03;17.33;;;11.68;;
31652;SDS011;18261;53.648;9.910;2024-01-06T02:36:28;18.80;;;11.88;;
31652;SDS011;18261;53.648;9.910;2024-01-06T02:38:54;21.38;;;13.05;;
31652;SDS011;18261;53.648;9.910;2024-01-06T02:41:20;20.73;;;13.70;;
31652;SDS011;18261;53.648;9.910;2024-01-06T02:43:46;20.77;;;12.77;;
31652;SDS011;18261;53.648;9.910;2024-01-06T02:46:11;23.45;;;13.43;;
31652;SDS011;18261;53.648;9.910;2024-01-06T02:48:37;20.35;;;12.95;;
31652;SDS011;18261;53.648;9.910;2024-01-06T02:51:03;22.30;;;13.32;;
31652;SDS011;18261;53.648;9.910;2024-01-06T02:53:28;20.48;;;13.13;;
31652;SDS011;18261;53.648;9.910;2024-01-06T02:55:54;21.27;;;13.27;;
31652;SDS011;18261;53.648;9.910;2024-01-06T02:58:20;24.80;;;13.98;;
31652;SDS011;18261;53.648;9.910;2024-01-06T03:00:45;20.67;;;13.93;;
31652;SDS011;18261;53.648;9.910;2024-01-06T03:03:11;21.38;;;13.48;;
31652;SDS011;18261;53.648;9.910;2024-01-06T03:05:36;21.83;;;13.68;;
31652;SDS011;18261;53.648;9.910;2024-01-06T03:08:02;22.50;;;13.68;;
31652;SDS011;18261;53.648;9.910;2024-01-06T03:10:29;22.75;;;13.60;;
31652;SDS011;18261;53.648;9.910;2024-01-06T03:12:54;22.00;;;13.55;;
31652;SDS011;18261;53.648;9.910;2024-01-06T03:15:20;23.52;;;13.55;;
31652;SDS011;18261;53.648;9.910;2024-01-06T03:17:45;22.92;;;13.52;;
31652;SDS011;18261;53.648;9.910;2024-01-06T03:20:11;21.52;;;13.15;;
31652;SDS011;18261;53.648;9.910;2024-01-06T03:22:36;21.73;;;13.40;;
31652;SDS011;18261;53.648;9.910;2024-01-06T03:25:03;21.58;;;13.55;;
31652;SDS011;18261;53.648;9.910;2024-01-06T03:27:29;24.33;;;14.50;;
31652;SDS011;18261;53.648;9.910;2024-01-06T03:29:55;21.42;;;13.63;;
31652;SDS011;18261;53.648;9.910;2024-01-06T03:32:21;22.77;;;13.90;;
31652;SDS011;18261;53.648;9.910;2024-01-06T03:34:47;19.80;;;13.38;;
31652;SDS011;18261;53.648;9.910;2024-01-06T03:37:12;24.45;;;14.32;;
31652;SDS011;18261;53.648;9.910;2024-01-06T03:39:38;19.17;;;12.57;;
31652;SDS011;18261;53.648;9.910;2024-01-06T03:42:04;20.77;;;13.52;;
31652;SDS011;18261;53.648;9.910;2024-01-06T03:44:30;22.40;;;12.95;;
31652;SDS011;18261;53.648;9.910;2024-01-06T03:46:58;27.98;;;13.55;;
31652;SDS011;18261;53.648;9.910;2024-01-06T03:49:24;20.88;;;13.15;;
31652;SDS011;18261;53.648;9.910;2024-01-06T03:51:50;20.50;;;13.10;;
31652;SDS011;18261;53.648;9.910;2024-01-06T03:54:16;23.05;;;12.90;;
31652;SDS011;18261;53.648;9.910;2024-01-06T03:56:41;20.90;;;12.45;;
31652;SDS011;18261;53.648;9.910;2024-01-06T03:59:07;22.35;;;12.80;;
31652;SDS011;18261;53.648;9.910;2024-01-06T04:01:33;23.30;;;12.77;;
31652;SDS011;18261;53.648;9.910;2024-01-06T04:04:03;20.50;;;12.85;;
31652;SDS011;18261;53.648;9.910;2024-01-06T04:06:30;20.73;;;13.10;;
31652;SDS011;18261;53.648;9.910;2024-01-06T04:08:57;22.65;;;13.25;;
31652;SDS011;18261;53.648;9.910;2024-01-06T04:11:22;21.00;;;12.20;;
31652;SDS011;18261;53.648;9.910;2024-01-06T04:13:48;21.52;;;13.82;;
31652;SDS011;18261;53.648;9.910;2024-01-06T04:16:13;24.55;;;13.40;;
31652;SDS011;18261;53.648;9.910;2024-01-06T04:18:39;22.88;;;13.07;;
31652;SDS011;18261;53.648;9.910;2024-01-06T04:21:05;23.77;;;13.13;;
31652;SDS011;18261;53.648;9.910;2024-01-06T04:23:30;20.20;;;12.90;;
31652;SDS011;18261;53.648;9.910;2024-01-06T04:25:56;22.23;;;12.90;;
31652;SDS011;18261;53.648;9.910;2024-01-06T04:28:22;20.48;;;13.10;;
31652;SDS011;18261;53.648;9.910;2024-01-06T04:30:48;21.40;;;13.05;;
31652;SDS011;18261;53.648;9.910;2024-01-06T04:33:13;19.80;;;12.15;;
31652;SDS011;18261;53.648;9.910;2024-01-06T04:35:39;19.27;;;12.73;;
31652;SDS011;18261;53.648;9.910;2024-01-06T04:38:05;19.08;;;11.88;;
31652;SDS011;18261;53.648;9.910;2024-01-06T04:40:30;21.13;;;11.30;;
31652;SDS011;18261;53.648;9.910;2024-01-06T04:42:56;22.45;;;11.98;;
31652;SDS011;18261;53.648;9.910;2024-01-06T04:45:22;20.67;;;12.00;;
31652;SDS011;18261;53.648;9.910;2024-01-06T04:47:49;18.85;;;12.27;;
31652;SDS011;18261;53.648;9.910;2024-01-06T04:50:15;19.02;;;12.50;;
31652;SDS011;18261;53.648;9.910;2024-01-06T04:52:42;19.20;;;12.25;;
31652;SDS011;18261;53.648;9.910;2024-01-06T04:55:08;20.27;;;12.48;;
31652;SDS011;18261;53.648;9.910;2024-01-06T04:57:34;20.48;;;12.57;;
31652;SDS011;18261;53.648;9.910;2024-01-06T05:00:00;21.10;;;12.27;;
31652;SDS011;18261;53.648;9.910;2024-01-06T05:02:26;20.10;;;12.65;;
31652;SDS011;18261;53.648;9.910;2024-01-06T05:04:51;21.25;;;12.98;;
31652;SDS011;18261;53.648;9.910;2024-01-06T05:07:17;20.92;;;12.52;;
31652;SDS011;18261;53.648;9.910;2024-01-06T05:09:42;22.35;;;12.93;;
31652;SDS011;18261;53.648;9.910;2024-01-06T05:12:08;19.52;;;12.80;;
31652;SDS011;18261;53.648;9.910;2024-01-06T05:14:34;23.75;;;13.65;;
31652;SDS011;18261;53.648;9.910;2024-01-06T05:16:59;26.10;;;13.52;;
31652;SDS011;18261;53.648;9.910;2024-01-06T05:19:25;23.45;;;13.35;;
31652;SDS011;18261;53.648;9.910;2024-01-06T05:21:50;22.55;;;12.77;;
31652;SDS011;18261;53.648;9.910;2024-01-06T05:24:16;20.75;;;13.15;;
31652;SDS011;18261;53.648;9.910;2024-01-06T05:26:44;21.27;;;13.40;;
31652;SDS011;18261;53.648;9.910;2024-01-06T05:29:09;24.83;;;13.75;;
31652;SDS011;18261;53.648;9.910;2024-01-06T05:31:35;19.75;;;13.25;;
31652;SDS011;18261;53.648;9.910;2024-01-06T05:34:01;26.92;;;13.40;;
31652;SDS011;18261;53.648;9.910;2024-01-06T05:36:26;26.27;;;14.25;;
31652;SDS011;18261;53.648;9.910;2024-01-06T05:38:52;23.33;;;13.93;;
31652;SDS011;18261;53.648;9.910;2024-01-06T05:41:18;24.73;;;14.30;;
31652;SDS011;18261;53.648;9.910;2024-01-06T05:43:43;26.08;;;13.88;;
31652;SDS011;18261;53.648;9.910;2024-01-06T05:46:09;23.52;;;14.23;;
31652;SDS011;18261;53.648;9.910;2024-01-06T05:48:35;25.90;;;14.82;;
31652;SDS011;18261;53.648;9.910;2024-01-06T05:51:01;23.60;;;14.18;;
31652;SDS011;18261;53.648;9.910;2024-01-06T05:53:30;28.35;;;14.60;;
31652;SDS011;18261;53.648;9.910;2024-01-06T05:55:56;24.05;;;14.27;;
31652;SDS011;18261;53.648;9.910;2024-01-06T05:58:21;24.30;;;15.23;;
31652;SDS011;18261;53.648;9.910;2024-01-06T06:00:47;21.42;;;13.73;;
31652;SDS011;18261;53.648;9.910;2024-01-06T06:03:13;25.60;;;15.57;;
31652;SDS011;18261;53.648;9.910;2024-01-06T06:05:39;24.30;;;14.95;;
31652;SDS011;18261;53.648;9.910;2024-01-06T06:08:04;26.48;;;13.77;;
31652;SDS011;18261;53.648;9.910;2024-01-06T06:10:30;25.25;;;15.07;;
31652;SDS011;18261;53.648;9.910;2024-01-06T06:13:06;25.15;;;14.65;;
31652;SDS011;18261;53.648;9.910;2024-01-06T06:15:35;26.73;;;15.75;;
31652;SDS011;18261;53.648;9.910;2024-01-06T06:18:01;24.73;;;14.85;;
31652;SDS011;18261;53.648;9.910;2024-01-06T06:20:26;27.52;;;15.95;;
31652;SDS011;18261;53.648;9.910;2024-01-06T06:22:52;24.77;;;15.07;;
31652;SDS011;18261;53.648;9.910;2024-01-06T06:25:18;26.93;;;15.60;;
31652;SDS011;18261;53.648;9.910;2024-01-06T06:27:43;26.17;;;15.43;;
31652;SDS011;18261;53.648;9.910;2024-01-06T06:30:09;24.77;;;15.32;;
31652;SDS011;18261;53.648;9.910;2024-01-06T06:32:35;28.50;;;15.18;;
31652;SDS011;18261;53.648;9.910;2024-01-06T06:35:01;24.83;;;14.45;;
31652;SDS011;18261;53.648;9.910;2024-01-06T06:37:26;29.48;;;16.17;;
31652;SDS011;18261;53.648;9.910;2024-01-06T06:39:52;25.85;;;15.73;;
31652;SDS011;18261;53.648;9.910;2024-01-06T06:42:18;25.25;;;14.50;;
31652;SDS011;18261;53.648;9.910;2024-01-06T06:44:43;26.40;;;15.43;;
31652;SDS011;18261;53.648;9.910;2024-01-06T06:47:09;25.77;;;15.38;;
31652;SDS011;18261;53.648;9.910;2024-01-06T06:49:34;26.15;;;15.20;;
31652;SDS011;18261;53.648;9.910;2024-01-06T06:52:00;27.30;;;15.23;;
31652;SDS011;18261;53.648;9.910;2024-01-06T06:54:27;32.38;;;16.67;;
31652;SDS011;18261;53.648;9.910;2024-01-06T06:56:53;23.85;;;14.85;;
31652;SDS011;18261;53.648;9.910;2024-01-06T06:59:19;27.35;;;15.63;;
31652;SDS011;18261;53.648;9.910;2024-01-06T07:01:44;30.33;;;16.33;;
31652;SDS011;18261;53.648;9.910;2024-01-06T07:04:10;30.48;;;16.23;;
31652;SDS011;18261;53.648;9.910;2024-01-06T07:06:36;28.85;;;15.90;;
31652;SDS011;18261;53.648;9.910;2024-01-06T07:09:01;25.83;;;16.05;;
31652;SDS011;18261;53.648;9.910;2024-01-06T07:11:28;27.52;;;16.27;;
31652;SDS011;18261;53.648;9.910;2024-01-06T07:13:53;26.65;;;16.00;;
31652;SDS011;18261;53.648;9.910;2024-01-06T07:16:19;26.70;;;15.80;;
31652;SDS011;18261;53.648;9.910;2024-01-06T07:18:44;27.02;;;15.98;;
31652;SDS011;18261;53.648;9.910;2024-01-06T07:21:11;26.23;;;16.48;;
31652;SDS011;18261;53.648;9.910;2024-01-06T07:23:37;25.85;;;16.10;;
31652;SDS011;18261;53.648;9.910;2024-01-06T07:26:03;31.73;;;17.42;;
31652;SDS011;18261;53.648;9.910;2024-01-06T07:28:28;28.42;;;17.60;;
31652;SDS011;18261;53.648;9.910;2024-01-06T07:30:54;34.92;;;18.95;;
31652;SDS011;18261;53.648;9.910;2024-01-06T07:33:20;25.67;;;15.23;;
31652;SDS011;18261;53.648;9.910;2024-01-06T07:35:46;28.95;;;17.30;;
31652;SDS011;18261;53.648;9.910;2024-01-06T07:38:12;24.50;;;15.27;;
31652;SDS011;18261;53.648;9.910;2024-01-06T07:40:38;25.80;;;15.95;;
31652;SDS011;18261;53.648;9.910;2024-01-06T07:43:04;27.08;;;16.33;;
31652;SDS011;18261;53.648;9.910;2024-01-06T07:45:30;28.35;;;17.30;;
31652;SDS011;18261;53.648;9.910;2024-01-06T07:47:56;27.60;;;16.33;;
31652;SDS011;18261;53.648;9.910;2024-01-06T07:50:23;28.83;;;16.02;;
31652;SDS011;18261;53.648;9.910;2024-01-06T07:52:48;28.20;;;16.25;;
31652;SDS011;18261;53.648;9.910;2024-01-06T07:55:14;30.52;;;17.33;;
31652;SDS011;18261;53.648;9.910;2024-01-06T07:57:39;28.60;;;16.80;;
31652;SDS011;18261;53.648;9.910;2024-01-06T08:00:05;25.95;;;14.90;;
31652;SDS011;18261;53.648;9.910;2024-01-06T08:02:31;27.60;;;16.48;;
31652;SDS011;18261;53.648;9.910;2024-01-06T08:04:57;27.90;;;16.42;;
31652;SDS011;18261;53.648;9.910;2024-01-06T08:07:23;28.70;;;16.52;;
31652;SDS011;18261;53.648;9.910;2024-01-06T08:09:50;25.52;;;14.88;;
31652;SDS011;18261;53.648;9.910;2024-01-06T08:12:16;26.80;;;15.80;;
31652;SDS011;18261;53.648;9.910;2024-01-06T08:14:41;27.60;;;16.13;;
31652;SDS011;18261;53.648;9.910;2024-01-06T08:17:07;27.88;;;15.35;;
31652;SDS011;18261;53.648;9.910;2024-01-06T08:19:32;26.58;;;15.32;;
31652;SDS011;18261;53.648;9.910;2024-01-06T08:21:58;26.15;;;15.23;;
31652;SDS011;18261;53.648;9.910;2024-01-06T08:24:24;26.27;;;16.00;;
31652;SDS011;18261;53.648;9.910;2024-01-06T08:26:50;27.40;;;15.63;;
31652;SDS011;18261;53.648;9.910;2024-01-06T08:29:15;25.83;;;15.05;;
31652;SDS011;18261;53.648;9.910;2024-01-06T08:31:44;25.05;;;15.25;;
31652;SDS011;18261;53.648;9.910;2024-01-06T08:34:09;25.33;;;15.27;;
31652;SDS011;18261;53.648;9.910;2024-01-06T08:36:35;27.15;;;15.68;;
31652;SDS011;18261;53.648;9.910;2024-01-06T08:39:01;26.58;;;14.68;;
31652;SDS011;18261;53.648;9.910;2024-01-06T08:41:26;28.02;;;15.77;;
31652;SDS011;18261;53.648;9.910;2024-01-06T08:43:52;29.13;;;15.32;;
31652;SDS011;18261;53.648;9.910;2024-01-06T08:46:18;26.88;;;15.02;;
31652;SDS011;18261;53.648;9.910;2024-01-06T08:48:43;25.70;;;14.63;;
31652;SDS011;18261;53.648;9.910;2024-01-06T08:51:09;23.85;;;14.13;;
31652;SDS011;18261;53.648;9.910;2024-01-06T08:53:34;26.80;;;15.40;;
31652;SDS011;18261;53.648;9.910;2024-01-06T08:56:00;24.40;;;14.77;;
31652;SDS011;18261;53.648;9.910;2024-01-06T08:58:25;26.50;;;15.32;;
31652;SDS011;18261;53.648;9.910;2024-01-06T09:00:52;27.10;;;14.50;;
31652;SDS011;18261;53.648;9.910;2024-01-06T09:03:18;27.38;;;14.98;;
31652;SDS011;18261;53.648;9.910;2024-01-06T09:05:50;24.45;;;14.18;;
31652;SDS011;18261;53.648;9.910;2024-01-06T09:08:17;28.80;;;16.67;;
31652;SDS011;18261;53.648;9.910;2024-01-06T09:10:42;28.65;;;15.35;;
31652;SDS011;18261;53.648;9.910;2024-01-06T09:13:08;31.23;;;15.68;;
31652;SDS011;18261;53.648;9.910;2024-01-06T09:15:33;35.47;;;15.50;;
31652;SDS011;18261;53.648;9.910;2024-01-06T09:17:59;32.78;;;14.75;;
31652;SDS011;18261;53.648;9.910;2024-01-06T09:20:25;26.35;;;14.88;;
31652;SDS011;18261;53.648;9.910;2024-01-06T09:22:52;28.10;;;15.07;;
31652;SDS011;18261;53.648;9.910;2024-01-06T09:25:18;27.05;;;15.32;;
31652;SDS011;18261;53.648;9.910;2024-01-06T09:27:43;26.38;;;14.88;;
31652;SDS011;18261;53.648;9.910;2024-01-06T09:30:09;29.45;;;15.40;;
31652;SDS011;18261;53.648;9.910;2024-01-06T09:32:36;26.30;;;13.75;;
31652;SDS011;18261;53.648;9.910;2024-01-06T09:35:01;25.90;;;14.57;;
31652;SDS011;18261;53.648;9.910;2024-01-06T09:37:28;25.85;;;14.15;;
31652;SDS011;18261;53.648;9.910;2024-01-06T09:39:54;29.15;;;14.40;;
31652;SDS011;18261;53.648;9.910;2024-01-06T09:42:20;27.48;;;15.15;;
31652;SDS011;18261;53.648;9.910;2024-01-06T09:44:45;29.42;;;16.52;;
31652;SDS011;18261;53.648;9.910;2024-01-06T09:47:12;30.35;;;16.30;;
31652;SDS011;18261;53.648;9.910;2024-01-06T09:49:38;29.65;;;15.40;;
31652;SDS011;18261;53.648;9.910;2024-01-06T09:52:08;27.23;;;14.95;;
31652;SDS011;18261;53.648;9.910;2024-01-06T09:54:43;27.88;;;16.63;;
31652;SDS011;18261;53.648;9.910;2024-01-06T09:57:15;27.27;;;15.63;;
31652;SDS011;18261;53.648;9.910;2024-01-06T09:59:40;26.80;;;14.63;;
31652;SDS011;18261;53.648;9.910;2024-01-06T10:02:09;25.58;;;14.40;;
31652;SDS011;18261;53.648;9.910;2024-01-06T10:04:38;28.48;;;15.15;;
31652;SDS011;18261;53.648;9.910;2024-01-06T10:07:03;31.35;;;15.65;;
31652;SDS011;18261;53.648;9.910;2024-01-06T10:09:30;25.80;;;14.32;;
31652;SDS011;18261;53.648;9.910;2024-01-06T10:11:56;29.30;;;14.98;;
31652;SDS011;18261;53.648;9.910;2024-01-06T10:14:23;32.03;;;16.50;;
31652;SDS011;18261;53.648;9.910;2024-01-06T10:16:49;28.08;;;14.75;;
31652;SDS011;18261;53.648;9.910;2024-01-06T10:19:16;29.38;;;16.05;;
31652;SDS011;18261;53.648;9.910;2024-01-06T10:21:42;29.95;;;15.05;;
31652;SDS011;18261;53.648;9.910;2024-01-06T10:24:08;27.40;;;14.73;;
31652;SDS011;18261;53.648;9.910;2024-01-06T10:26:34;29.65;;;15.13;;
31652;SDS011;18261;53.648;9.910;2024-01-06T10:29:00;30.77;;;15.48;;
31652;SDS011;18261;53.648;9.910;2024-01-06T10:31:26;26.85;;;13.95;;
31652;SDS011;18261;53.648;9.910;2024-01-06T10:33:52;21.40;;;13.00;;
31652;SDS011;18261;53.648;9.910;2024-01-06T10:36:17;27.48;;;14.75;;
31652;SDS011;18261;53.648;9.910;2024-01-06T10:38:46;27.90;;;14.75;;
31652;SDS011;18261;53.648;9.910;2024-01-06T10:41:12;26.52;;;14.52;;
31652;SDS011;18261;53.648;9.910;2024-01-06T10:43:40;28.75;;;14.85;;
31652;SDS011;18261;53.648;9.910;2024-01-06T10:46:08;24.67;;;13.45;;
31652;SDS011;18261;53.648;9.910;2024-01-06T10:48:38;23.58;;;13.15;;
31652;SDS011;18261;53.648;9.910;2024-01-06T10:51:07;25.20;;;13.73;;
31652;SDS011;18261;53.648;9.910;2024-01-06T10:53:37;23.63;;;13.48;;
31652;SDS011;18261;53.648;9.910;2024-01-06T10:56:05;25.20;;;13.45;;
31652;SDS011;18261;53.648;9.910;2024-01-06T10:58:32;26.80;;;12.57;;
31652;SDS011;18261;53.648;9.910;2024-01-06T11:01:07;23.80;;;12.20;;
31652;SDS011;18261;53.648;9.910;2024-01-06T11:03:33;23.13;;;12.07;;
31652;SDS011;18261;53.648;9.910;2024-01-06T11:06:06;25.52;;;12.40;;
31652;SDS011;18261;53.648;9.910;2024-01-06T11:08:36;20.02;;;11.57;;
31652;SDS011;18261;53.648;9.910;2024-01-06T11:11:23;20.17;;;11.57;;
31652;SDS011;18261;53.648;9.910;2024-01-06T11:13:50;24.63;;;11.95;;
31652;SDS011;18261;53.648;9.910;2024-01-06T11:16:37;24.50;;;12.35;;
31652;SDS011;18261;53.648;9.910;2024-01-06T11:19:02;23.48;;;12.50;;
31652;SDS011;18261;53.648;9.910;2024-01-06T11:21:48;23.00;;;11.77;;
31652;SDS011;18261;53.648;9.910;2024-01-06T11:24:14;20.30;;;11.52;;
31652;SDS011;18261;53.648;9.910;2024-01-06T11:26:51;24.30;;;11.23;;
31652;SDS011;18261;53.648;9.910;2024-01-06T11:29:19;23.70;;;11.77;;
31652;SDS011;18261;53.648;9.910;2024-01-06T11:34:42;25.05;;;10.57;;
31652;SDS011;18261;53.648;9.910;2024-01-06T11:37:12;20.77;;;10.68;;
31652;SDS011;18261;53.648;9.910;2024-01-06T11:39:40;23.05;;;9.55;;
31652;SDS011;18261;53.648;9.910;2024-01-06T11:42:09;18.15;;;9.35;;
31652;SDS011;18261;53.648;9.910;2024-01-06T11:44:39;14.85;;;8.57;;
31652;SDS011;18261;53.648;9.910;2024-01-06T11:47:08;19.75;;;8.82;;
31652;SDS011;18261;53.648;9.910;2024-01-06T11:49:36;23.05;;;10.30;;
31652;SDS011;18261;53.648;9.910;2024-01-06T11:52:02;16.92;;;9.43;;
31652;SDS011;18261;53.648;9.910;2024-01-06T11:54:28;17.02;;;9.30;;
31652;SDS011;18261;53.648;9.910;2024-01-06T11:56:55;16.25;;;9.40;;
31652;SDS011;18261;53.648;9.910;2024-01-06T11:59:22;17.98;;;8.93;;
31652;SDS011;18261;53.648;9.910;2024-01-06T12:01:48;18.08;;;8.52;;
31652;SDS011;18261;53.648;9.910;2024-01-06T12:04:14;14.32;;;8.30;;
31652;SDS011;18261;53.648;9.910;2024-01-06T12:06:40;15.50;;;8.57;;
31652;SDS011;18261;53.648;9.910;2024-01-06T12:09:06;16.10;;;9.07;;
31652;SDS011;18261;53.648;9.910;2024-01-06T12:11:34;20.05;;;9.35;;
31652;SDS011;18261;53.648;9.910;2024-01-06T12:13:59;19.33;;;8.77;;
31652;SDS011;18261;53.648;9.910;2024-01-06T12:16:25;17.88;;;8.32;;
31652;SDS011;18261;53.648;9.910;2024-01-06T12:18:54;17.95;;;9.55;;
31652;SDS011;18261;53.648;9.910;2024-01-06T12:21:24;17.20;;;9.40;;
31652;SDS011;18261;53.648;9.910;2024-01-06T12:23:50;13.60;;;7.90;;
31652;SDS011;18261;53.648;9.910;2024-01-06T12:26:18;15.52;;;8.00;;
31652;SDS011;18261;53.648;9.910;2024-01-06T12:28:45;14.65;;;7.93;;
31652;SDS011;18261;53.648;9.910;2024-01-06T12:31:11;17.20;;;9.18;;
31652;SDS011;18261;53.648;9.910;2024-01-06T12:33:37;18.40;;;8.63;;
31652;SDS011;18261;53.648;9.910;2024-01-06T12:36:07;21.73;;;8.27;;
31652;SDS011;18261;53.648;9.910;2024-01-06T12:38:39;12.00;;;7.68;;
31652;SDS011;18261;53.648;9.910;2024-01-06T12:41:07;13.30;;;7.85;;
31652;SDS011;18261;53.648;9.910;2024-01-06T12:43:33;12.82;;;7.28;;
31652;SDS011;18261;53.648;9.910;2024-01-06T12:45:58;14.73;;;7.45;;
31652;SDS011;18261;53.648;9.910;2024-01-06T12:48:24;11.93;;;7.38;;
31652;SDS011;18261;53.648;9.910;2024-01-06T12:50:50;15.68;;;7.30;;
31652;SDS011;18261;53.648;9.910;2024-01-06T12:53:15;12.18;;;6.85;;
31652;SDS011;18261;53.648;9.910;2024-01-06T12:55:42;11.00;;;6.32;;
31652;SDS011;18261;53.648;9.910;2024-01-06T12:58:08;13.68;;;8.10;;
31652;SDS011;18261;53.648;9.910;2024-01-06T13:00:34;12.40;;;7.47;;
31652;SDS011;18261;53.648;9.910;2024-01-06T13:02:59;15.10;;;7.55;;
31652;SDS011;18261;53.648;9.910;2024-01-06T13:05:25;12.30;;;7.43;;
31652;SDS011;18261;53.648;9.910;2024-01-06T13:07:51;13.13;;;6.95;;
31652;SDS011;18261;53.648;9.910;2024-01-06T13:10:16;16.75;;;8.20;;
31652;SDS011;18261;53.648;9.910;2024-01-06T13:12:42;13.02;;;7.38;;
31652;SDS011;18261;53.648;9.910;2024-01-06T13:15:08;14.23;;;7.57;;
31652;SDS011;18261;53.648;9.910;2024-01-06T13:17:39;15.90;;;7.72;;
31652;SDS011;18261;53.648;9.910;2024-01-06T13:20:05;14.25;;;8.73;;
31652;SDS011;18261;53.648;9.910;2024-01-06T13:22:33;12.55;;;7.88;;
31652;SDS011;18261;53.648;9.910;2024-01-06T13:24:58;15.88;;;7.38;;
31652;SDS011;18261;53.648;9.910;2024-01-06T13:27:24;12.82;;;7.50;;
31652;SDS011;18261;53.648;9.910;2024-01-06T13:29:52;14.73;;;7.40;;
31652;SDS011;18261;53.648;9.910;2024-01-06T13:32:18;15.30;;;8.35;;
31652;SDS011;18261;53.648;9.910;2024-01-06T13:34:44;18.83;;;9.70;;
31652;SDS011;18261;53.648;9.910;2024-01-06T13:37:10;16.40;;;8.93;;
31652;SDS011;18261;53.648;9.910;2024-01-06T13:39:36;14.55;;;7.72;;
31652;SDS011;18261;53.648;9.910;2024-01-06T13:42:01;15.52;;;8.63;;
31652;SDS011;18261;53.648;9.910;2024-01-06T13:44:28;11.88;;;7.85;;
31652;SDS011;18261;53.648;9.910;2024-01-06T13:46:54;12.98;;;7.43;;
31652;SDS011;18261;53.648;9.910;2024-01-06T13:49:21;14.05;;;7.05;;
31652;SDS011;18261;53.648;9.910;2024-01-06T13:51:48;11.63;;;6.90;;
31652;SDS011;18261;53.648;9.910;2024-01-06T13:54:14;16.17;;;7.85;;
31652;SDS011;18261;53.648;9.910;2024-01-06T13:56:39;16.23;;;7.93;;
31652;SDS011;18261;53.648;9.910;2024-01-06T13:59:05;18.55;;;7.65;;
31652;SDS011;18261;53.648;9.910;2024-01-06T14:01:31;14.93;;;7.60;;
31652;SDS011;18261;53.648;9.910;2024-01-06T14:03:57;10.13;;;6.78;;
31652;SDS011;18261;53.648;9.910;2024-01-06T14:06:25;12.75;;;7.30;;
31652;SDS011;18261;53.648;9.910;2024-01-06T14:08:55;12.93;;;7.18;;
31652;SDS011;18261;53.648;9.910;2024-01-06T14:11:21;12.90;;;6.97;;
31652;SDS011;18261;53.648;9.910;2024-01-06T14:13:46;12.93;;;7.32;;
31652;SDS011;18261;53.648;9.910;2024-01-06T14:16:14;14.80;;;7.95;;
31652;SDS011;18261;53.648;9.910;2024-01-06T14:18:40;22.27;;;9.40;;
31652;SDS011;18261;53.648;9.910;2024-01-06T14:21:07;13.23;;;7.38;;
31652;SDS011;18261;53.648;9.910;2024-01-06T14:23:36;14.05;;;7.50;;